aviador You're here:

KTOL Decoded Metar

TOLEDO in OH, USA
Report Time2017-05-29 03:52:00
UTC Time2017-05-29 04:00:08
Flight Rules vfr VFR
Wind260° at 08 kt
W.Decomp.*RWY 25: 7.7 kt HW 2.1 kt RCW
RWY 34: 2.1 kt HW 7.7 kt LCW
W.Rank260° ranks 5
Current wind is below 260° avg. (10.0)
Visibility9999 m
Phenomena:N/A
Clouds:N/A
CeilingNone
Temp17°C (ISA +3)
Dew Point17°C (100% RH)
AAT16.5°C
QNH1007 hPa
Density Alt1,549 ft
Elevation689 ft
Report Wrong Elevation
Raw Report
KTOL 290352Z 26008KT 9SM CLR 17/17 A2974 RMK AO2 SLP067
T01720172=

Extra information for KTOL:More info

Metar Taf Metar & Taf Last 4 Metars F.Rules Stats Wind Profile Meteogram Temp Stats Airport Information Weather charts Add Link Nearby VenuesMetar ALERT Operation Metar Decoded Social comments

AIRNAV info for KTOL